リーブルヴィル の空港の天気 - METARとTAF

リーブルヴィル国際空港 ( FOOL / LBV ) - ガボン リーブルヴィル
飛行場実況気象(Metar)
観測時間11/30 16:00 WAT (11/30 15:00 UTC)
風向・風速西南西 4m/s
視程10km以上
天気現象
少しの雲 雲底高度 400m
気温31℃
湿度62%
気圧1006hPa
METARFOOL 301500Z 25008KT 220V280 9999 FEW013 31/23 Q1006 NOSIG
過去の天気等 Google飛行場航空写真 Wunderground天気予報

過去48時間のMETAR

飛行場予報(TAF)
発表時間: 11/30 18:15 WAT (11/30 17:15 UTC)
予報対象時間: 30日19時 WAT ~ 2日1時 WAT
風向・風速南南西 4m/s
視程10km以上
全天の4割程度の雲 雲底高度 340m
少しの積乱雲 雲底高度 610m
全天の8割程度の雲 雲底高度 910m
30日23時 WAT ~ 1日5時 WAT に 確率 30% で一時的に
天気現象
TAF FOOL 301715Z 3018/0124 20007KT 9999 SCT011 FEW020CB BKN030
PROB30 TEMPO 3022/0104 TS